Solitude, Utah
Current Conditions -  °F | °C
As of 9:53 AM on Saturday 22 Nov 2014 (Local Time) from KSLC Reporting Station
Light Rain Light Rain  
Wind Chill: 42°   Ceiling: 5500
Heat Index: 49°   Visibility: 8mi
Dew Point: 27°   Wind: 23mph
Humidity: 43%   Direction: 180°S
Pressure: 29.88"   Gusts: 32mph
Location:  40.6239°N, 111.817°W
Report Text: KSLC 221653Z 18020G28KT 8SM -RA FEW037 OVC055 09/M03 A2988 RMK AO2 PK WND 18033/1621 RAB21 SLP110 P0000 T00941028
Loading
Personal Weather Stations






























Interactive Weather Map New forecast layout! Learn more

10-Day Weather Forecast

Advertisements
Track Severe Weather on mobile